Time;durP1;ratioP1;P1;durP2;ratioP2;P2;SDS_P1;SDS_P2;PMS_P1;PMS_P2;Temp;Humidity;BMP_temperature;BMP_pressure;BME280_temperature;BME280_humidity;BME280_pressure;Samples;Min_cycle;Max_cycle;Signal;HPM_P1;HPM_P2
2022/06/06 00:01:46;;;;;;;30.48;12.50;;;14.70;99.90;;;;;;5033497;28;20460;-85
2022/06/06 00:04:13;;;;;;;30.10;11.98;;;14.50;99.90;;;;;;5033051;28;20045;-85
2022/06/06 00:06:41;;;;;;;31.95;12.45;;;14.50;99.90;;;;;;5033239;28;20096;-85
2022/06/06 00:09:14;;;;;;;24.75;10.65;;;14.50;99.90;;;;;;5035291;28;20052;-84
2022/06/06 00:11:41;;;;;;;25.08;10.93;;;14.50;99.90;;;;;;5034702;28;20099;-85
2022/06/06 00:14:09;;;;;;;28.55;11.32;;;14.40;99.90;;;;;;5016691;28;20041;-85
2022/06/06 00:16:35;;;;;;;27.70;12.18;;;14.30;99.90;;;;;;5033033;28;20544;-84
2022/06/06 00:19:03;;;;;;;28.92;11.85;;;14.30;99.90;;;;;;5033318;28;20041;-84
2022/06/06 00:21:30;;;;;;;30.52;12.70;;;14.50;99.90;;;;;;5033058;28;20041;-84
2022/06/06 00:23:59;;;;;;;35.63;12.98;;;14.30;99.90;;;;;;5020331;28;20124;-85
2022/06/06 00:26:30;;;;;;;40.47;12.77;;;14.30;99.90;;;;;;5033056;28;20210;-85
2022/06/06 00:28:56;;;;;;;31.92;11.75;;;14.30;99.90;;;;;;5032612;28;20041;-86
2022/06/06 00:36:51;;;;;;;41.55;13.57;;;14.30;99.90;;;;;;5032866;28;20061;-86
2022/06/06 00:39:18;;;;;;;46.45;14.00;;;14.60;99.90;;;;;;5016208;28;20208;-85
2022/06/06 00:41:46;;;;;;;41.35;13.10;;;14.20;99.90;;;;;;5032480;28;20041;-86
2022/06/06 00:44:15;;;;;;;32.05;12.25;;;14.30;99.90;;;;;;5032550;28;20156;-85
2022/06/06 00:46:56;;;;;;;34.42;12.73;;;14.30;99.90;;;;;;5016141;28;20045;-85
2022/06/06 00:49:28;;;;;;;37.60;12.23;;;14.20;99.90;;;;;;5016077;28;20049;-85
2022/06/06 00:51:56;;;;;;;34.08;12.02;;;14.30;99.90;;;;;;5032395;28;20045;-85
2022/06/06 00:54:34;;;;;;;30.75;11.80;;;14.40;99.90;;;;;;5032543;28;20049;-85
2022/06/06 00:57:04;;;;;;;42.85;12.27;;;14.20;99.90;;;;;;5032237;28;20042;-85
2022/06/06 00:59:34;;;;;;;32.72;10.90;;;14.30;99.90;;;;;;5032370;28;20038;-86
2022/06/06 01:02:00;;;;;;;37.30;12.90;;;14.20;99.90;;;;;;5032672;28;20516;-86
2022/06/06 01:04:28;;;;;;;29.13;12.10;;;14.20;99.90;;;;;;5032314;28;20081;-86
2022/06/06 01:06:56;;;;;;;33.45;11.55;;;14.20;99.90;;;;;;5032201;28;20049;-86
2022/06/06 01:09:29;;;;;;;29.63;11.07;;;14.20;99.90;;;;;;5018390;28;20064;-86
2022/06/06 01:12:02;;;;;;;26.55;10.45;;;14.10;99.90;;;;;;5036318;28;20620;-85
2022/06/06 01:14:38;;;;;;;25.67;10.90;;;14.10;99.90;;;;;;5036291;28;20041;-86
2022/06/06 01:17:41;;;;;;;27.38;10.80;;;14.20;99.90;;;;;;5036555;28;20044;-86
2022/06/06 01:20:26;;;;;;;41.28;12.55;;;14.20;99.90;;;;;;5019998;28;20389;-85
2022/06/06 01:23:13;;;;;;;26.93;11.70;;;14.20;99.90;;;;;;5036221;28;20049;-86
2022/06/06 01:25:42;;;;;;;36.20;12.90;;;14.10;99.90;;;;;;5036357;28;20499;-85
2022/06/06 01:28:30;;;;;;;39.30;12.90;;;14.20;99.90;;;;;;5019772;28;20055;-85
2022/06/06 01:31:00;;;;;;;57.22;14.63;;;14.10;99.90;;;;;;5035957;28;20056;-85
2022/06/06 01:33:26;;;;;;;32.25;11.95;;;14.10;99.90;;;;;;5019977;28;20504;-85
2022/06/06 01:35:51;;;;;;;35.50;13.18;;;14.30;99.90;;;;;;5019844;28;20037;-85
2022/06/06 01:38:21;;;;;;;30.15;12.00;;;14.10;99.90;;;;;;5036444;28;20095;-84
2022/06/06 01:40:55;;;;;;;31.40;12.35;;;14.70;99.90;;;;;;5036035;28;20041;-84
2022/06/06 01:43:29;;;;;;;37.78;13.93;;;14.20;99.90;;;;;;5019620;28;20057;-85
2022/06/06 01:46:07;;;;;;;32.35;12.30;;;14.20;99.90;;;;;;5035889;28;20500;-85
2022/06/06 01:48:37;;;;;;;28.90;12.02;;;14.40;99.90;;;;;;5019217;28;20045;-84
2022/06/06 01:51:16;;;;;;;29.00;12.68;;;14.10;99.90;;;;;;5035586;28;20073;-85
2022/06/06 01:53:43;;;;;;;25.67;11.95;;;14.30;99.90;;;;;;5036965;28;20073;-85
2022/06/06 01:56:13;;;;;;;28.50;11.98;;;14.10;99.90;;;;;;5035935;28;20103;-84
2022/06/06 01:58:38;;;;;;;30.70;12.82;;;14.20;99.90;;;;;;5019641;28;20050;-84
2022/06/06 02:01:05;;;;;;;31.77;11.90;;;14.20;99.90;;;;;;5036354;28;20481;-85
2022/06/06 02:03:32;;;;;;;24.45;11.68;;;14.10;99.90;;;;;;5036078;28;20608;-84
2022/06/06 02:05:58;;;;;;;30.27;12.23;;;14.10;99.90;;;;;;5036349;28;20485;-84
2022/06/06 02:08:24;;;;;;;27.02;12.20;;;14.10;99.90;;;;;;5019714;28;20045;-84
2022/06/06 02:10:53;;;;;;;30.45;11.88;;;14.00;99.90;;;;;;5036252;28;20064;-84
2022/06/06 02:13:19;;;;;;;33.35;12.90;;;14.10;99.90;;;;;;5020361;28;20132;-84
2022/06/06 02:15:45;;;;;;;30.15;12.32;;;14.40;99.90;;;;;;5035180;28;20132;-84
2022/06/06 02:18:11;;;;;;;31.48;12.70;;;14.50;99.90;;;;;;5036095;28;20451;-84
2022/06/06 02:20:37;;;;;;;24.40;11.77;;;14.20;99.90;;;;;;5035082;28;20136;-84
2022/06/06 02:23:04;;;;;;;33.70;12.45;;;14.30;99.90;;;;;;5035290;28;20091;-84
2022/06/06 02:25:31;;;;;;;27.27;10.95;;;14.10;99.90;;;;;;5019664;28;20037;-83
2022/06/06 02:27:57;;;;;;;22.35;10.10;;;14.30;99.90;;;;;;5020097;28;20054;-84
2022/06/06 02:30:26;;;;;;;19.67;9.82;;;14.20;99.90;;;;;;5039238;28;20053;-84
2022/06/06 02:32:52;;;;;;;22.95;9.10;;;14.00;99.90;;;;;;5037763;28;20372;-84
2022/06/06 02:35:22;;;;;;;22.05;8.55;;;14.60;99.90;;;;;;5036905;28;20101;-84
2022/06/06 02:37:48;;;;;;;16.92;8.18;;;14.30;99.90;;;;;;5024114;28;20075;-84
2022/06/06 02:40:16;;;;;;;24.55;9.13;;;14.30;99.90;;;;;;5038686;28;20053;-84
2022/06/06 02:42:42;;;;;;;15.45;8.50;;;14.60;99.90;;;;;;5041404;28;20060;-83
2022/06/06 02:45:18;;;;;;;18.42;8.57;;;14.10;99.90;;;;;;5038506;28;20049;-84
2022/06/06 02:47:47;;;;;;;20.80;8.80;;;14.30;99.90;;;;;;5038009;28;20042;-84
2022/06/06 02:50:16;;;;;;;18.58;7.50;;;14.20;99.90;;;;;;5038207;28;20129;-84
2022/06/06 02:52:43;;;;;;;20.38;8.77;;;14.30;99.90;;;;;;5037017;28;20049;-84
2022/06/06 02:55:10;;;;;;;20.15;8.65;;;14.30;99.90;;;;;;5018511;28;20048;-84
2022/06/06 02:57:37;;;;;;;15.82;8.25;;;14.20;99.90;;;;;;5035862;28;20132;-84
2022/06/06 03:00:06;;;;;;;26.67;11.60;;;14.30;99.90;;;;;;5040105;28;20042;-84
2022/06/06 03:02:32;;;;;;;26.38;14.60;;;14.40;99.90;;;;;;5021919;28;20041;-85
2022/06/06 03:04:58;;;;;;;36.65;16.80;;;14.50;99.90;;;;;;5041393;28;20041;-84
2022/06/06 03:07:36;;;;;;;46.05;21.55;;;14.40;99.90;;;;;;5043250;28;20049;-83
2022/06/06 03:10:35;;;;;;;40.67;20.33;;;14.30;99.90;;;;;;5053313;28;20053;-84
2022/06/06 03:13:26;;;;;;;48.88;22.00;;;14.40;99.90;;;;;;5048102;28;20038;-84
2022/06/06 03:23:08;;;;;;;29.88;16.42;;;14.00;99.90;;;;;;4988603;28;20137;-82
2022/06/06 03:26:11;;;;;;;35.45;16.42;;;14.00;99.90;;;;;;4988407;28;20081;-85
2022/06/06 03:29:05;;;;;;;35.17;16.00;;;14.20;99.90;;;;;;5004756;28;20046;-82
2022/06/06 03:32:03;;;;;;;25.83;13.35;;;14.10;99.90;;;;;;4987816;28;20128;-82
2022/06/06 03:35:06;;;;;;;25.17;12.40;;;14.10;99.90;;;;;;4990487;28;20058;-85
2022/06/06 03:38:03;;;;;;;25.23;11.55;;;13.90;99.90;;;;;;4952246;29;20515;-81
2022/06/06 03:40:52;;;;;;;25.00;10.20;;;13.90;99.90;;;;;;4932803;29;20059;-85
2022/06/06 03:43:40;;;;;;;26.10;11.45;;;13.90;99.90;;;;;;4918117;29;20058;-83
2022/06/06 03:46:21;;;;;;;18.08;8.15;;;13.90;99.90;;;;;;4946682;28;20051;-82
2022/06/06 03:48:46;;;;;;;17.05;7.95;;;13.60;99.90;;;;;;4935588;29;20056;-83
2022/06/06 03:52:05;;;;;;;17.58;8.18;;;13.50;99.90;;;;;;4934420;29;20052;-82
2022/06/06 03:54:48;;;;;;;23.92;10.45;;;13.50;99.90;;;;;;4877107;29;20442;-83
2022/06/06 03:57:24;;;;;;;23.75;10.85;;;13.60;99.90;;;;;;4936275;29;20048;-83
2022/06/06 03:59:55;;;;;;;26.25;12.15;;;13.70;99.90;;;;;;4951447;28;20062;-82
2022/06/06 04:02:28;;;;;;;27.15;11.93;;;13.80;99.90;;;;;;4953968;29;20050;-83
2022/06/06 04:04:55;;;;;;;29.23;12.23;;;13.60;99.90;;;;;;4971185;29;20495;-83
2022/06/06 04:07:21;;;;;;;31.08;13.50;;;13.60;99.90;;;;;;4954211;29;20062;-82
2022/06/06 04:09:47;;;;;;;24.77;10.98;;;13.60;99.90;;;;;;4953499;29;20051;-83
2022/06/06 04:12:44;;;;;;;25.17;10.85;;;13.50;99.90;;;;;;4955435;29;20067;-83
2022/06/06 04:15:40;;;;;;;29.50;11.98;;;13.40;99.90;;;;;;5051549;28;20084;-83
2022/06/06 04:18:43;;;;;;;28.88;11.60;;;13.50;99.90;;;;;;5051265;28;20041;-82
2022/06/06 04:21:29;;;;;;;27.52;12.45;;;13.30;99.90;;;;;;5049974;28;20056;-83
2022/06/06 04:24:06;;;;;;;;;;;13.40;99.90;;;;;;5052140;28;20050;-82
2022/06/06 04:26:50;;;;;;;38.50;14.02;;;13.30;99.90;;;;;;5036159;28;19925;-82
2022/06/06 04:29:45;;;;;;;34.88;12.73;;;13.50;99.90;;;;;;5053182;28;20053;-82
2022/06/06 04:32:23;;;;;;;29.75;12.52;;;13.50;99.90;;;;;;5051697;28;20049;-83
2022/06/06 04:35:00;;;;;;;40.55;13.23;;;13.50;99.90;;;;;;5050499;28;20046;-83
2022/06/06 04:38:11;;;;;;;34.90;13.23;;;13.40;99.90;;;;;;5053654;28;20048;-82
2022/06/06 04:41:04;;;;;;;35.63;12.25;;;13.30;99.90;;;;;;5050971;28;20049;-83
2022/06/06 04:43:54;;;;;;;35.15;12.68;;;13.40;99.90;;;;;;5029869;28;20081;-82
2022/06/06 04:46:38;;;;;;;32.83;11.35;;;13.30;99.90;;;;;;5045519;28;20054;-82
2022/06/06 04:49:05;;;;;;;35.83;11.98;;;13.40;99.90;;;;;;5052236;28;20041;-82
2022/06/06 04:51:33;;;;;;;27.63;10.77;;;13.30;99.90;;;;;;5050708;28;20077;-82
2022/06/06 04:53:59;;;;;;;29.98;10.68;;;13.10;99.90;;;;;;5050469;28;20049;-82
2022/06/06 04:56:26;;;;;;;26.55;9.73;;;13.10;99.90;;;;;;5050344;28;20053;-82
2022/06/06 04:58:55;;;;;;;22.85;10.23;;;13.30;99.90;;;;;;5051277;28;20050;-82
2022/06/06 05:01:22;;;;;;;25.05;10.25;;;13.20;99.90;;;;;;5050967;28;20045;-81
2022/06/06 05:03:48;;;;;;;28.88;10.48;;;13.20;99.90;;;;;;5051502;28;20048;-82
2022/06/06 05:06:32;;;;;;;24.55;9.95;;;13.20;99.90;;;;;;5050331;28;20081;-83
2022/06/06 05:09:13;;;;;;;21.33;9.77;;;13.00;99.90;;;;;;5049625;28;20076;-82
2022/06/06 05:12:14;;;;;;;24.15;10.48;;;13.10;99.90;;;;;;5050572;28;20050;-82
2022/06/06 05:15:01;;;;;;;19.38;9.43;;;13.00;99.90;;;;;;5052117;28;20045;-83
2022/06/06 05:17:48;;;;;;;23.63;9.73;;;13.20;99.90;;;;;;5035389;28;20080;-82
2022/06/06 05:20:23;;;;;;;20.67;9.60;;;13.20;99.90;;;;;;5048272;28;20054;-83
2022/06/06 05:23:01;;;;;;;18.88;8.63;;;13.20;99.90;;;;;;5052265;28;20041;-82
2022/06/06 05:25:36;;;;;;;14.40;7.80;;;13.10;99.90;;;;;;5047799;28;20049;-81
2022/06/06 05:28:07;;;;;;;17.33;7.47;;;13.10;99.90;;;;;;5029662;28;20041;-83
2022/06/06 05:30:51;;;;;;;14.32;6.93;;;13.10;99.90;;;;;;5049497;28;20045;-82
2022/06/06 05:33:20;;;;;;;13.02;7.10;;;13.10;99.90;;;;;;5048624;28;20041;-82
2022/06/06 05:36:00;;;;;;;12.45;6.35;;;13.20;99.90;;;;;;5048144;28;20063;-83
2022/06/06 05:38:52;;;;;;;15.32;6.35;;;13.30;99.90;;;;;;5031870;28;20045;-83
2022/06/06 05:41:28;;;;;;;11.85;6.03;;;13.30;99.90;;;;;;5047655;28;20052;-82
2022/06/06 05:44:15;;;;;;;9.77;4.53;;;13.30;99.90;;;;;;5043475;28;20049;-83
2022/06/06 05:46:44;;;;;;;11.90;5.10;;;13.40;99.90;;;;;;5042683;28;20042;-83
2022/06/06 05:49:14;;;;;;;10.70;4.30;;;13.40;99.90;;;;;;5045613;28;20038;-82
2022/06/06 05:52:01;;;;;;;7.90;4.60;;;13.20;99.90;;;;;;5042078;28;20103;-83
2022/06/06 05:55:05;;;;;;;10.82;5.15;;;13.30;99.90;;;;;;5046148;28;20477;-82
2022/06/06 05:57:56;;;;;;;8.80;4.57;;;13.40;99.90;;;;;;5042522;28;20072;-84
2022/06/06 06:00:26;;;;;;;10.93;5.10;;;13.30;99.90;;;;;;5044341;28;20547;-85
2022/06/06 06:03:43;;;;;;;8.15;4.32;;;13.80;99.90;;;;;;5048051;28;20072;-82
2022/06/06 06:06:31;;;;;;;7.53;3.80;;;13.40;99.90;;;;;;5010886;28;20061;-86
2022/06/06 06:09:05;;;;;;;8.52;4.35;;;13.30;99.90;;;;;;5042275;28;20057;-82
2022/06/06 06:11:37;;;;;;;9.05;4.30;;;14.10;99.90;;;;;;5027563;28;20050;-83
2022/06/06 06:14:26;;;;;;;10.10;4.72;;;13.40;99.90;;;;;;5046398;28;20053;-83
2022/06/06 06:16:58;;;;;;;8.35;4.00;;;13.40;99.90;;;;;;5027869;28;20041;-84
2022/06/06 06:19:37;;;;;;;8.85;4.07;;;13.40;99.90;;;;;;5045221;28;20482;-83
2022/06/06 06:22:05;;;;;;;8.43;4.43;;;13.40;99.90;;;;;;5044739;28;20400;-84
2022/06/06 06:24:33;;;;;;;7.25;4.13;;;13.60;99.90;;;;;;5028692;28;20051;-83
2022/06/06 06:27:03;;;;;;;9.20;4.20;;;13.50;99.90;;;;;;5046528;28;20041;-84
2022/06/06 06:29:30;;;;;;;9.50;4.70;;;13.60;99.90;;;;;;5043898;28;20431;-84
2022/06/06 06:32:08;;;;;;;11.60;5.43;;;13.60;99.90;;;;;;5046116;28;20477;-83
2022/06/06 06:34:51;;;;;;;9.70;4.70;;;13.60;99.90;;;;;;5026455;28;20041;-85
2022/06/06 06:37:38;;;;;;;9.57;4.47;;;13.60;99.90;;;;;;5040508;28;20041;-85
2022/06/06 06:40:21;;;;;;;9.10;4.65;;;13.60;99.90;;;;;;5040063;28;20045;-85
2022/06/06 06:42:46;;;;;;;8.18;4.53;;;13.60;99.90;;;;;;5042733;28;20112;-83
2022/06/06 06:45:28;;;;;;;10.15;4.60;;;13.70;99.90;;;;;;5037099;28;20148;-84
2022/06/06 06:48:11;;;;;;;9.23;4.05;;;13.80;99.90;;;;;;5038616;28;20081;-87
2022/06/06 06:50:42;;;;;;;8.75;3.92;;;13.90;99.90;;;;;;5037561;28;20049;-86
2022/06/06 06:53:29;;;;;;;8.57;4.28;;;13.90;99.90;;;;;;5039683;28;20392;-83
2022/06/06 06:56:05;;;;;;;10.52;4.60;;;13.90;99.90;;;;;;5038827;28;20049;-88
2022/06/06 06:58:53;;;;;;;10.60;4.75;;;14.00;99.90;;;;;;5021981;28;20041;-84
2022/06/06 07:01:39;;;;;;;9.65;4.72;;;13.90;99.90;;;;;;5020866;28;20088;-84
2022/06/06 07:10:04;;;;;;;8.02;3.75;;;14.00;99.90;;;;;;4982083;28;20146;-84
2022/06/06 07:12:57;;;;;;;9.13;3.40;;;14.10;99.90;;;;;;4979834;28;20046;-85
2022/06/06 07:15:47;;;;;;;5.97;3.30;;;14.10;99.90;;;;;;4979573;28;20137;-86
2022/06/06 07:18:15;;;;;;;8.43;3.53;;;14.10;99.90;;;;;;4980775;28;20060;-84
2022/06/06 07:20:44;;;;;;;6.32;3.33;;;14.30;99.90;;;;;;4964843;28;20046;-83
2022/06/06 07:23:12;;;;;;;6.60;3.40;;;14.30;99.90;;;;;;4979504;28;20125;-84
2022/06/06 07:25:40;;;;;;;7.22;3.78;;;14.50;99.90;;;;;;4980699;28;20145;-82
2022/06/06 07:28:12;;;;;;;9.00;3.75;;;14.40;99.90;;;;;;4980293;28;20057;-86
2022/06/06 07:30:42;;;;;;;8.45;4.22;;;14.50;99.90;;;;;;4980361;28;20085;-85
2022/06/06 07:33:37;;;;;;;7.90;3.60;;;14.40;99.90;;;;;;4961694;28;20050;-85
2022/06/06 07:36:18;;;;;;;6.90;3.33;;;14.40;99.90;;;;;;4982012;28;20493;-84
2022/06/06 07:38:55;;;;;;;11.10;4.07;;;14.30;99.90;;;;;;4983141;28;20046;-84
2022/06/06 07:41:50;;;;;;;11.68;5.05;;;14.20;99.90;;;;;;5021090;28;20053;-83
2022/06/06 07:44:24;;;;;;;11.48;5.60;;;13.90;99.90;;;;;;5023195;28;20076;-85
2022/06/06 07:47:06;;;;;;;11.95;6.20;;;13.90;99.90;;;;;;5034030;28;20057;-82
2022/06/06 07:49:46;;;;;;;14.32;6.82;;;13.90;99.90;;;;;;5049506;28;20471;-83
2022/06/06 07:52:26;;;;;;;14.50;7.32;;;13.90;99.90;;;;;;5041024;28;20190;-86
2022/06/06 07:55:08;;;;;;;14.70;7.68;;;14.20;99.90;;;;;;5044273;28;20045;-82
2022/06/06 07:57:49;;;;;;;12.88;7.07;;;14.30;99.90;;;;;;5045526;28;20052;-83
2022/06/06 08:00:20;;;;;;;12.10;6.68;;;14.40;99.90;;;;;;5043377;28;20048;-88
2022/06/06 08:03:13;;;;;;;12.35;6.22;;;14.60;99.90;;;;;;5038758;28;20175;-86
2022/06/06 08:06:00;;;;;;;10.10;5.50;;;14.70;99.90;;;;;;5037222;28;20072;-85
2022/06/06 08:09:05;;;;;;;10.63;4.93;;;14.70;99.90;;;;;;5040460;28;20038;-85
2022/06/06 08:11:53;;;;;;;9.93;4.32;;;14.80;99.90;;;;;;5054019;28;20057;-86
2022/06/06 08:14:46;;;;;;;10.25;4.88;;;14.90;99.90;;;;;;5034408;28;20045;-84
2022/06/06 08:17:41;;;;;;;9.65;4.38;;;15.00;99.90;;;;;;5035711;28;20060;-84
2022/06/06 08:20:57;;;;;;;11.63;5.05;;;15.10;99.90;;;;;;5051087;28;20073;-86
2022/06/06 08:23:25;;;;;;;8.35;4.00;;;15.20;99.90;;;;;;5013639;28;20072;-85
2022/06/06 08:25:54;;;;;;;8.45;3.97;;;15.40;99.90;;;;;;5014790;28;20103;-86
2022/06/06 08:28:20;;;;;;;8.43;3.75;;;15.20;99.90;;;;;;5000094;28;20078;-85
2022/06/06 08:30:46;;;;;;;8.40;3.50;;;15.30;99.90;;;;;;4999815;28;20096;-85
2022/06/06 08:33:12;;;;;;;6.75;3.50;;;15.50;99.90;;;;;;5014339;28;20053;-84
2022/06/06 08:35:56;;;;;;;6.53;3.63;;;15.70;99.90;;;;;;5013768;28;20046;-83
2022/06/06 08:38:44;;;;;;;6.15;3.35;;;15.50;99.90;;;;;;5014396;28;20038;-88
2022/06/06 08:41:43;;;;;;;7.65;3.28;;;15.40;99.90;;;;;;5001053;28;20485;-85
2022/06/06 08:44:41;;;;;;;4.93;2.50;;;15.70;99.90;;;;;;4998206;28;20057;-84
2022/06/06 08:47:38;;;;;;;6.57;3.75;;;16.10;99.90;;;;;;4936023;29;20111;-84
2022/06/06 08:50:47;;;;;;;6.28;3.28;;;16.30;99.90;;;;;;4865837;29;20052;-84
2022/06/06 08:53:49;;;;;;;6.97;3.28;;;16.40;99.90;;;;;;4864721;29;20064;-85
2022/06/06 08:57:03;;;;;;;8.77;3.70;;;16.40;99.90;;;;;;4879439;29;20041;-85
2022/06/06 09:00:07;;;;;;;6.85;3.33;;;16.20;99.90;;;;;;4845851;29;20053;-86
2022/06/06 09:03:02;;;;;;;7.60;3.28;;;16.10;99.90;;;;;;4879496;29;20051;-87
2022/06/06 09:05:34;;;;;;;6.93;3.70;;;16.00;99.90;;;;;;4879006;29;20057;-87
2022/06/06 09:08:35;;;;;;;11.25;4.22;;;16.40;99.90;;;;;;4880197;29;20178;-86
2022/06/06 09:11:15;;;;;;;10.23;3.80;;;15.60;99.90;;;;;;4879082;29;20474;-88
2022/06/06 09:14:00;;;;;;;8.55;3.40;;;15.70;99.90;;;;;;4878668;29;20049;-86
2022/06/06 09:16:46;;;;;;;8.38;3.45;;;15.70;99.90;;;;;;4880407;29;20041;-86
2022/06/06 09:19:33;;;;;;;8.15;3.70;;;15.70;99.90;;;;;;4880130;29;20045;-89
2022/06/06 09:22:15;;;;;;;9.75;4.00;;;15.60;99.90;;;;;;4879950;29;20045;-85
2022/06/06 09:25:11;;;;;;;7.10;3.42;;;15.50;99.90;;;;;;4937595;28;20531;-83
2022/06/06 09:27:52;;;;;;;8.18;3.53;;;15.40;99.90;;;;;;5001510;28;20053;-85
2022/06/06 09:30:55;;;;;;;10.00;3.80;;;15.40;99.90;;;;;;5039565;28;20068;-84
2022/06/06 09:34:04;;;;;;;8.18;3.83;;;15.60;99.90;;;;;;5023428;28;20046;-87
2022/06/06 09:36:44;;;;;;;8.60;3.53;;;15.90;99.90;;;;;;5038799;28;20065;-87
2022/06/06 09:39:42;;;;;;;7.05;2.80;;;16.30;99.90;;;;;;5021317;28;20080;-86
2022/06/06 09:42:33;;;;;;;10.32;2.40;;;16.50;99.90;;;;;;5020719;28;20044;-87
2022/06/06 09:45:30;;;;;;;7.30;2.67;;;16.50;99.90;;;;;;5022328;28;20140;-87
2022/06/06 09:48:23;;;;;;;7.10;2.50;;;16.40;99.90;;;;;;5038138;28;20107;-85
2022/06/06 09:50:55;;;;;;;5.35;2.50;;;16.40;99.90;;;;;;5021305;28;20050;-87
2022/06/06 10:00:20;;;;;;;9.27;3.45;;;16.10;99.90;;;;;;5000119;28;20513;-84
2022/06/06 10:03:14;;;;;;;8.40;3.40;;;15.80;99.90;;;;;;4984096;28;20050;-86
2022/06/06 10:05:59;;;;;;;7.32;3.33;;;15.80;99.90;;;;;;4977691;28;20140;-88
2022/06/06 10:09:02;;;;;;;8.68;2.90;;;16.10;99.90;;;;;;5014111;23;20326;-89
2022/06/06 10:11:39;;;;;;;9.32;2.55;;;16.50;99.90;;;;;;5041264;28;20082;-85
2022/06/06 10:14:24;;;;;;;8.75;2.95;;;16.80;99.90;;;;;;5056620;28;20045;-89
2022/06/06 10:17:08;;;;;;;5.40;2.15;;;17.10;99.90;;;;;;5041254;23;20050;-88
2022/06/06 10:19:57;;;;;;;5.80;2.60;;;17.20;99.90;;;;;;5019594;28;20136;-85
2022/06/06 10:22:39;;;;;;;4.28;1.70;;;17.60;99.90;;;;;;5019425;28;20080;-86
2022/06/06 10:25:30;;;;;;;6.65;2.13;;;17.90;99.90;;;;;;5036346;28;20068;-86
2022/06/06 10:28:20;;;;;;;7.55;2.22;;;18.20;99.90;;;;;;5036138;28;20045;-84
2022/06/06 10:31:13;;;;;;;6.78;2.00;;;18.40;99.90;;;;;;5019640;28;20172;-87
2022/06/06 10:34:13;;;;;;;5.90;1.92;;;18.20;99.90;;;;;;5037343;28;20127;-88
2022/06/06 10:37:17;;;;;;;10.98;3.80;;;18.20;99.90;;;;;;5035932;28;20050;-84
2022/06/06 10:40:12;;;;;;;7.85;2.22;;;18.50;99.90;;;;;;5019298;28;20535;-86
2022/06/06 10:42:51;;;;;;;7.10;1.83;;;18.50;99.90;;;;;;5041224;23;20049;-88
2022/06/06 10:45:54;;;;;;;5.80;2.08;;;18.30;99.90;;;;;;5019186;28;20476;-90
2022/06/06 10:48:44;;;;;;;4.88;1.60;;;18.00;99.90;;;;;;5005262;28;20092;-86
2022/06/06 10:51:37;;;;;;;5.53;2.00;;;17.60;99.90;;;;;;5026331;28;20099;-89
2022/06/06 10:54:40;;;;;;;6.38;2.05;;;17.50;99.90;;;;;;5027509;28;20045;-85
2022/06/06 10:57:25;;;;;;;7.20;2.28;;;17.90;99.90;;;;;;5036616;28;20053;-90
2022/06/06 11:00:22;;;;;;;5.68;1.40;;;18.10;99.90;;;;;;5019662;28;20046;-91
2022/06/06 11:03:18;;;;;;;5.15;1.70;;;18.40;99.90;;;;;;5035004;28;20061;-87
2022/06/06 11:06:10;;;;;;;7.13;1.80;;;18.80;99.90;;;;;;5019197;28;20061;-86
2022/06/06 11:09:00;;;;;;;4.30;1.63;;;18.80;99.90;;;;;;5035857;28;20500;-84
2022/06/06 11:11:49;;;;;;;7.93;1.73;;;18.60;99.90;;;;;;5035402;28;20511;-89
2022/06/06 11:14:32;;;;;;;6.28;1.95;;;18.60;99.90;;;;;;5018959;28;20042;-89
2022/06/06 11:17:25;;;;;;;14.00;2.30;;;18.60;99.90;;;;;;5035613;28;20072;-89
2022/06/06 11:20:21;;;;;;;8.13;2.17;;;18.30;99.90;;;;;;5035380;28;20046;-87
2022/06/06 11:23:05;;;;;;;5.85;2.03;;;18.10;99.90;;;;;;5018340;28;20053;-87
2022/06/06 11:25:58;;;;;;;6.32;2.60;;;17.90;99.90;;;;;;5035470;28;20045;-88
2022/06/06 11:28:24;;;;;;;4.95;2.20;;;17.60;99.90;;;;;;5017985;28;20049;-85
2022/06/06 11:31:14;;;;;;;7.13;2.15;;;17.60;99.90;;;;;;5018282;28;20103;-86
2022/06/06 11:34:17;;;;;;;4.50;1.70;;;17.80;99.90;;;;;;5019182;28;20084;-86
2022/06/06 11:37:04;;;;;;;5.00;2.05;;;18.10;99.90;;;;;;5034684;28;20081;-86
2022/06/06 11:39:45;;;;;;;6.63;2.30;;;18.20;99.90;;;;;;5034537;28;20049;-87
2022/06/06 11:42:22;;;;;;;7.85;2.40;;;18.20;99.90;;;;;;5033231;28;20076;-84
2022/06/06 11:45:27;;;;;;;6.00;2.15;;;18.10;99.90;;;;;;5034665;28;20041;-83
2022/06/06 11:47:52;;;;;;;6.72;2.47;;;18.00;99.90;;;;;;5023251;28;20085;-84
2022/06/06 11:50:42;;;;;;;7.25;2.20;;;18.00;99.90;;;;;;5035680;28;20041;-86
2022/06/06 11:53:45;;;;;;;7.05;2.30;;;17.90;99.90;;;;;;5032501;28;20056;-85
2022/06/06 11:56:24;;;;;;;5.18;2.03;;;17.70;99.90;;;;;;5017789;28;20434;-85
2022/06/06 11:59:02;;;;;;;6.07;1.90;;;17.40;99.90;;;;;;5018789;28;20080;-85
2022/06/06 12:02:07;;;;;;;6.18;2.20;;;17.40;99.90;;;;;;5035338;28;20451;-85
2022/06/06 12:04:55;;;;;;;9.77;2.83;;;17.60;99.90;;;;;;5035076;28;20111;-84
2022/06/06 12:07:45;;;;;;;6.07;2.20;;;17.70;99.90;;;;;;5017696;28;20045;-85
2022/06/06 12:10:24;;;;;;;7.28;2.33;;;17.80;99.90;;;;;;5017462;28;20490;-85
2022/06/06 12:13:11;;;;;;;6.05;2.10;;;17.80;99.90;;;;;;5033639;28;20500;-85
2022/06/06 12:16:01;;;;;;;5.30;2.22;;;17.90;99.90;;;;;;5034026;28;20167;-86
2022/06/06 12:18:38;;;;;;;6.07;2.42;;;17.80;99.90;;;;;;5033930;28;20130;-85
2022/06/06 12:21:20;;;;;;;5.95;2.60;;;17.70;99.90;;;;;;5034581;28;20396;-87
2022/06/06 12:24:12;;;;;;;10.00;3.03;;;17.30;99.90;;;;;;5034766;28;20049;-85
2022/06/06 12:26:59;;;;;;;6.65;3.22;;;17.10;99.90;;;;;;5034266;28;20574;-86
2022/06/06 12:29:37;;;;;;;8.52;2.70;;;17.00;99.90;;;;;;5016758;28;20037;-85
2022/06/06 12:34:53;;;;;;;5.15;2.40;;;16.60;99.90;;;;;;5068859;22;20045;-85
2022/06/06 12:37:33;;;;;;;6.72;2.85;;;16.50;99.90;;;;;;5037109;28;20037;-86
2022/06/06 12:40:28;;;;;;;5.38;2.67;;;16.40;99.90;;;;;;5038228;28;20095;-88
2022/06/06 12:43:06;;;;;;;9.70;3.28;;;16.40;99.90;;;;;;5054847;28;20041;-87
2022/06/06 12:46:03;;;;;;;6.25;2.75;;;16.50;99.90;;;;;;5039184;28;20048;-85
2022/06/06 12:48:38;;;;;;;8.23;2.78;;;16.50;99.90;;;;;;5053858;28;20110;-85
2022/06/06 12:51:17;;;;;;;9.67;3.10;;;16.50;99.90;;;;;;5053953;28;20045;-88
2022/06/06 12:53:58;;;;;;;8.63;3.70;;;16.30;99.90;;;;;;5053546;28;20123;-87
2022/06/06 12:56:48;;;;;;;6.65;3.35;;;16.30;99.90;;;;;;5053369;28;20388;-87
2022/06/06 12:59:46;;;;;;;5.15;2.90;;;16.20;99.90;;;;;;5037318;28;20385;-88
2022/06/06 13:02:21;;;;;;;6.95;2.90;;;16.20;99.90;;;;;;5056138;28;20096;-85
2022/06/06 13:05:11;;;;;;;5.10;2.60;;;16.30;99.90;;;;;;5052732;28;20045;-85
2022/06/06 13:07:43;;;;;;;8.10;3.78;;;16.30;99.90;;;;;;5036794;28;20093;-85
2022/06/06 13:10:30;;;;;;;7.18;3.25;;;16.20;99.90;;;;;;5054228;28;20076;-86
2022/06/06 13:13:23;;;;;;;9.02;4.40;;;16.00;99.90;;;;;;5037290;28;20439;-86
2022/06/06 13:16:24;;;;;;;8.32;3.97;;;15.90;99.90;;;;;;5053370;28;20476;-86
2022/06/06 13:19:05;;;;;;;7.15;3.80;;;15.80;99.90;;;;;;4981184;28;20089;-85
2022/06/06 13:22:01;;;;;;;6.88;3.90;;;15.50;99.90;;;;;;4998582;28;20046;-85
2022/06/06 13:24:56;;;;;;;6.55;3.85;;;15.30;99.90;;;;;;5001667;28;20430;-83
2022/06/06 13:27:49;;;;;;;7.13;3.65;;;15.00;99.90;;;;;;5000234;28;20042;-84
2022/06/06 13:30:28;;;;;;;6.65;3.65;;;14.90;99.90;;;;;;5001471;28;20058;-86
2022/06/06 13:33:25;;;;;;;5.40;3.10;;;14.80;99.90;;;;;;5002395;28;20549;-84
2022/06/06 13:35:57;;;;;;;7.18;3.60;;;14.80;99.90;;;;;;4998668;28;20089;-85
2022/06/06 13:38:51;;;;;;;6.93;3.90;;;15.60;99.90;;;;;;4998087;28;20045;-84
2022/06/06 13:41:31;;;;;;;9.02;4.72;;;14.90;99.90;;;;;;5001091;28;20133;-84
2022/06/06 13:43:59;;;;;;;10.18;4.80;;;14.80;99.90;;;;;;5000102;28;20478;-85
2022/06/06 13:46:33;;;;;;;9.20;4.90;;;14.70;99.90;;;;;;5004141;28;20136;-83
2022/06/06 13:49:19;;;;;;;10.90;5.07;;;14.70;99.90;;;;;;5002805;28;20064;-84
2022/06/06 13:52:00;;;;;;;20.75;6.43;;;14.60;99.90;;;;;;5025895;28;20054;-82
2022/06/06 13:54:33;;;;;;;17.02;6.40;;;14.50;99.90;;;;;;5026597;28;20042;-82
2022/06/06 13:57:13;;;;;;;8.77;3.53;;;14.20;99.90;;;;;;5064851;28;20083;-82
2022/06/06 14:00:04;;;;;;;6.88;3.08;;;14.00;99.90;;;;;;5063649;28;20117;-83
2022/06/06 14:02:51;;;;;;;9.25;3.65;;;13.80;99.90;;;;;;5066531;23;20061;-83
2022/06/06 14:05:33;;;;;;;5.53;3.30;;;13.70;99.90;;;;;;5040485;23;21750;-82
2022/06/06 14:08:16;;;;;;;8.02;3.80;;;13.70;99.90;;;;;;5048202;28;20467;-82
2022/06/06 14:10:55;;;;;;;10.88;4.57;;;13.80;99.90;;;;;;5027898;28;20571;-82
2022/06/06 14:13:38;;;;;;;8.35;4.05;;;13.80;99.90;;;;;;5028086;28;20042;-81
2022/06/06 14:16:18;;;;;;;10.73;4.60;;;13.70;99.90;;;;;;5051781;23;20042;-82
2022/06/06 14:18:45;;;;;;;8.57;3.40;;;13.80;99.90;;;;;;5031467;28;20125;-82